Arnegard, North Dakota
Current Conditions -  °F | °C
As of 7:52 AM on Saturday 25 Oct 2014 (Local Time) from KISN Reporting Station
Broken Clouds Broken Clouds  
Wind Chill: 34°   Ceiling: 12000
Heat Index: 34°   Visibility: 10mi
Dew Point: 28°   Wind: 0mph
Humidity: 79%   Direction: NA
Pressure: 30.12"   Gusts: NA
Location:  47.81°N, 103.44°W
Report Text: KISN 251252Z AUTO 00000KT 10SM SCT100 BKN120 01/M02 A3012 RMK AO2 SLP218 T00111022
Loading
Personal Weather Stations






























Interactive Weather Map
Tropical Storm Tracking
New forecast layout! Learn more

10-Day Weather Forecast

Advertisements
Track Severe Weather on mobile